Terminal Aerodrome Forecast
Issued by NWS

Current Version | Previous Version | Text Only | Print | Product List | Glossary On
Versions: 1 2 3 4 5 6 7 8 9 10 11 12 13 14 15 16 17 18 19 20 21 22 23 24 25 26 27 28 29 30 31 32 33 34 35 36 37 38 39 40 41 42 43 44 45 46 47 48 49
000
FTUS42 KMFL 300922 AAA
TAFOPF
TAF AMD
KOPF 300922Z 3009/3106 22004KT P6SM FEW030 SCT250
     FM301400 25006KT P6SM VCSH SCT030 SCT060 BKN250
     FM301700 20008KT P6SM VCTS SCT030CB BKN060 BKN250
     FM310000 21007KT P6SM SCT030 BKN100 BKN250=

USA.gov is the U.S. government's official web portal to all federal, state and local government web resources and services.